PWSweather.com
Personal Weather Stations
Station Observations
PALMY
Palmerston NorthNZ 4410

Palmerston NorthNZ 4410

Lat: -40.349104, Lon: 175.615094

Elevation: 75.4

Station Type: WeatherDuino Pro2

http://palmyweather.co.nz

Latest ConditionsUpdated 5:15:00 PM GMT+12:12 Thursday, Jun 27, 2019
Currently Today's Max Today's Min Today's Average
Temperature 46.0°F7.8°C 54.0°F12.2°C 30.9°F-0.6°C 41.6°F5.3°C
Dew Point 36.0°F2.2°C 42.5°F5.8°C 21.6°F-5.8°C 31.5°F-0.3°C
Winds 0.4 mph ENE0.6 kmh ENE 4.5 mph -7.2 kmh - - 2.1 mph 3.4 kmh
Wind Gusts 1.3 mph2.1 kmh 13.4 mph21.6 kmh - -
Humidity 68% 69% 63% 67%
Pressure 30.57 in1035.2 mb 30.63 in1037.3 mb 30.54 in1034.2 mb -
Hour Temp Dew Point Humidity Winds Wind Gusts Pressure Precip Precip Rate Daily Precip Total
05:15 PM 46.0°F7.8°C 36.0°F2.2°C 68% 0.4 mph ENE0.6 kmh ENE 1.3 mph2.1 kmh 30.57 in1035.2 mb 0.00 in0.0 mm 0.00 in0.0 mm 0.00 in0.0 mm
05:10 PM 46.6°F8.1°C 36.6°F2.6°C 68% 0.4 mph ENE0.6 kmh ENE 1.3 mph2.1 kmh 30.57 in1035.2 mb 0.00 in0.0 mm 0.00 in0.0 mm 0.00 in0.0 mm
05:05 PM 47.1°F8.4°C 37.4°F3.0°C 69% 0.9 mph E1.4 kmh E 3.1 mph5.0 kmh 30.57 in1035.2 mb 0.00 in0.0 mm 0.00 in0.0 mm 0.00 in0.0 mm
05:00 PM 47.8°F8.8°C 38.1°F3.4°C 69% 0.9 mph ESE1.4 kmh ESE 3.1 mph5.0 kmh 30.57 in1035.2 mb 0.00 in0.0 mm 0.00 in0.0 mm 0.00 in0.0 mm
04:55 PM 48.2°F9.0°C 38.5°F3.6°C 69% 1.3 mph ESE2.1 kmh ESE 2.7 mph4.3 kmh 30.57 in1035.2 mb 0.00 in0.0 mm 0.00 in0.0 mm 0.00 in0.0 mm
04:50 PM 48.6°F9.2°C 38.9°F3.8°C 69% 1.3 mph SE2.1 kmh SE 3.6 mph5.8 kmh 30.57 in1035.2 mb 0.00 in0.0 mm 0.00 in0.0 mm 0.00 in0.0 mm
04:45 PM 49.1°F9.5°C 39.4°F4.1°C 69% 1.3 mph SE2.1 kmh SE 3.6 mph5.8 kmh 30.57 in1035.2 mb 0.00 in0.0 mm 0.00 in0.0 mm 0.00 in0.0 mm
04:40 PM 49.5°F9.7°C 39.7°F4.3°C 69% 1.8 mph SE2.9 kmh SE 4.9 mph7.9 kmh 30.57 in1035.2 mb 0.00 in0.0 mm 0.00 in0.0 mm 0.00 in0.0 mm
04:35 PM 49.8°F9.9°C 39.7°F4.3°C 68% 2.2 mph SE3.5 kmh SE 4.9 mph7.9 kmh 30.57 in1035.2 mb 0.00 in0.0 mm 0.00 in0.0 mm 0.00 in0.0 mm
04:30 PM 50.2°F10.1°C 40.0°F4.4°C 68% 2.2 mph SE3.5 kmh SE 4.0 mph6.4 kmh 30.57 in1035.2 mb 0.00 in0.0 mm 0.00 in0.0 mm 0.00 in0.0 mm
04:25 PM 50.7°F10.4°C 40.5°F4.7°C 68% 2.2 mph SE3.5 kmh SE 5.4 mph8.7 kmh 30.57 in1035.2 mb 0.00 in0.0 mm 0.00 in0.0 mm 0.00 in0.0 mm
04:20 PM 50.9°F10.5°C 40.3°F4.6°C 67% 1.8 mph SE2.9 kmh SE 5.4 mph8.7 kmh 30.57 in1035.2 mb 0.00 in0.0 mm 0.00 in0.0 mm 0.00 in0.0 mm
04:15 PM 51.4°F10.8°C 40.8°F4.9°C 67% 2.2 mph SE3.5 kmh SE 6.7 mph10.8 kmh 30.56 in1034.9 mb 0.00 in0.0 mm 0.00 in0.0 mm 0.00 in0.0 mm
04:10 PM 51.6°F10.9°C 40.6°F4.8°C 66% 2.7 mph SE4.3 kmh SE 8.1 mph13.0 kmh 30.57 in1035.2 mb 0.00 in0.0 mm 0.00 in0.0 mm 0.00 in0.0 mm
04:05 PM 51.8°F11.0°C 40.8°F4.9°C 66% 2.7 mph SE4.3 kmh SE 8.1 mph13.0 kmh 30.56 in1034.9 mb 0.00 in0.0 mm 0.00 in0.0 mm 0.00 in0.0 mm
04:00 PM 52.3°F11.3°C 40.9°F4.9°C 65% 2.7 mph SE4.3 kmh SE 6.3 mph10.1 kmh 30.57 in1035.2 mb 0.00 in0.0 mm 0.00 in0.0 mm 0.00 in0.0 mm
03:55 PM 52.3°F11.3°C 40.9°F4.9°C 65% 2.7 mph SE4.3 kmh SE 6.3 mph10.1 kmh 30.57 in1035.2 mb 0.00 in0.0 mm 0.00 in0.0 mm 0.00 in0.0 mm
03:50 PM 52.5°F11.4°C 41.1°F5.1°C 65% 2.7 mph SE4.3 kmh SE 6.3 mph10.1 kmh 30.57 in1035.2 mb 0.00 in0.0 mm 0.00 in0.0 mm 0.00 in0.0 mm
03:45 PM 52.5°F11.4°C 40.7°F4.8°C 64% 3.1 mph SE5.0 kmh SE 7.2 mph11.6 kmh 30.57 in1035.2 mb 0.00 in0.0 mm 0.00 in0.0 mm 0.00 in0.0 mm
03:40 PM 52.5°F11.4°C 40.7°F4.8°C 64% 3.1 mph SE5.0 kmh SE 8.5 mph13.7 kmh 30.57 in1035.2 mb 0.00 in0.0 mm 0.00 in0.0 mm 0.00 in0.0 mm
03:35 PM 52.7°F11.5°C 40.5°F4.7°C 63% 2.7 mph SE4.3 kmh SE 8.5 mph13.7 kmh 30.57 in1035.2 mb 0.00 in0.0 mm 0.00 in0.0 mm 0.00 in0.0 mm
03:30 PM 53.2°F11.8°C 41.3°F5.2°C 64% 3.1 mph SE5.0 kmh SE 9.4 mph15.1 kmh 30.57 in1035.2 mb 0.00 in0.0 mm 0.00 in0.0 mm 0.00 in0.0 mm
03:25 PM 52.7°F11.5°C 40.9°F4.9°C 64% 3.1 mph SE5.0 kmh SE 9.4 mph15.1 kmh 30.57 in1035.2 mb 0.00 in0.0 mm 0.00 in0.0 mm 0.00 in0.0 mm
03:20 PM 53.1°F11.7°C 41.2°F5.1°C 64% 3.6 mph ESE5.8 kmh ESE 10.8 mph17.4 kmh 30.57 in1035.2 mb 0.00 in0.0 mm 0.00 in0.0 mm 0.00 in0.0 mm
03:15 PM 52.7°F11.5°C 40.9°F4.9°C 64% 3.6 mph ESE5.8 kmh ESE 10.8 mph17.4 kmh 30.57 in1035.2 mb 0.00 in0.0 mm 0.00 in0.0 mm 0.00 in0.0 mm
03:10 PM 53.1°F11.7°C 41.2°F5.1°C 64% 3.6 mph SE5.8 kmh SE 9.4 mph15.1 kmh 30.57 in1035.2 mb 0.00 in0.0 mm 0.00 in0.0 mm 0.00 in0.0 mm
03:05 PM 53.1°F11.7°C 41.2°F5.1°C 64% 3.6 mph SE5.8 kmh SE 9.0 mph14.5 kmh 30.57 in1035.2 mb 0.00 in0.0 mm 0.00 in0.0 mm 0.00 in0.0 mm
03:00 PM 53.2°F11.8°C 41.3°F5.2°C 64% 3.1 mph ESE5.0 kmh ESE 7.6 mph12.2 kmh 30.57 in1035.2 mb 0.00 in0.0 mm 0.00 in0.0 mm 0.00 in0.0 mm
02:55 PM 53.2°F11.8°C 41.3°F5.2°C 64% 3.1 mph ESE5.0 kmh ESE 9.9 mph15.9 kmh 30.57 in1035.2 mb 0.00 in0.0 mm 0.00 in0.0 mm 0.00 in0.0 mm
02:50 PM 53.6°F12.0°C 41.7°F5.4°C 64% 3.6 mph SE5.8 kmh SE 9.9 mph15.9 kmh 30.57 in1035.2 mb 0.00 in0.0 mm 0.00 in0.0 mm 0.00 in0.0 mm
02:45 PM 53.2°F11.8°C 41.3°F5.2°C 64% 3.6 mph SE5.8 kmh SE 8.1 mph13.0 kmh 30.57 in1035.2 mb 0.00 in0.0 mm 0.00 in0.0 mm 0.00 in0.0 mm
02:40 PM 53.2°F11.8°C 41.3°F5.2°C 64% 3.6 mph SE5.8 kmh SE 8.1 mph13.0 kmh 30.57 in1035.2 mb 0.00 in0.0 mm 0.00 in0.0 mm 0.00 in0.0 mm
02:35 PM 53.6°F12.0°C 41.7°F5.4°C 64% 4.0 mph SE6.4 kmh SE 10.3 mph16.6 kmh 30.57 in1035.2 mb 0.00 in0.0 mm 0.00 in0.0 mm 0.00 in0.0 mm
02:30 PM 53.4°F11.9°C 41.5°F5.3°C 64% 4.0 mph SE6.4 kmh SE 10.3 mph16.6 kmh 30.57 in1035.2 mb 0.00 in0.0 mm 0.00 in0.0 mm 0.00 in0.0 mm
02:25 PM 53.8°F12.1°C 41.5°F5.3°C 63% 3.1 mph ESE5.0 kmh ESE 7.6 mph12.2 kmh 30.57 in1035.2 mb 0.00 in0.0 mm 0.00 in0.0 mm 0.00 in0.0 mm
02:20 PM 53.4°F11.9°C 41.5°F5.3°C 64% 2.7 mph E4.3 kmh E 5.4 mph8.7 kmh 30.57 in1035.2 mb 0.00 in0.0 mm 0.00 in0.0 mm 0.00 in0.0 mm
02:15 PM 54.0°F12.2°C 42.1°F5.6°C 64% 3.6 mph E5.8 kmh E 9.0 mph14.5 kmh 30.57 in1035.2 mb 0.00 in0.0 mm 0.00 in0.0 mm 0.00 in0.0 mm
02:10 PM 53.1°F11.7°C 41.2°F5.1°C 64% 4.0 mph E6.4 kmh E 9.0 mph14.5 kmh 30.57 in1035.2 mb 0.00 in0.0 mm 0.00 in0.0 mm 0.00 in0.0 mm
02:05 PM 53.2°F11.8°C 41.3°F5.2°C 64% 4.0 mph E6.4 kmh E 8.5 mph13.7 kmh 30.57 in1035.2 mb 0.00 in0.0 mm 0.00 in0.0 mm 0.00 in0.0 mm
02:00 PM 53.6°F12.0°C 41.7°F5.4°C 64% 3.1 mph E5.0 kmh E 6.7 mph10.8 kmh 30.57 in1035.2 mb 0.00 in0.0 mm 0.00 in0.0 mm 0.00 in0.0 mm
01:55 PM 53.8°F12.1°C 41.5°F5.3°C 63% 2.7 mph E4.3 kmh E 6.7 mph10.8 kmh 30.57 in1035.2 mb 0.00 in0.0 mm 0.00 in0.0 mm 0.00 in0.0 mm
01:50 PM 53.6°F12.0°C 41.3°F5.2°C 63% 3.1 mph E5.0 kmh E 9.0 mph14.5 kmh 30.57 in1035.2 mb 0.00 in0.0 mm 0.00 in0.0 mm 0.00 in0.0 mm
01:45 PM 54.0°F12.2°C 42.5°F5.8°C 65% 3.1 mph E5.0 kmh E 9.0 mph14.5 kmh 30.58 in1035.6 mb 0.00 in0.0 mm 0.00 in0.0 mm 0.00 in0.0 mm
01:40 PM 53.8°F12.1°C 42.3°F5.7°C 65% 3.1 mph E5.0 kmh E 9.0 mph14.5 kmh 30.58 in1035.6 mb 0.00 in0.0 mm 0.00 in0.0 mm 0.00 in0.0 mm
01:35 PM 53.8°F12.1°C 42.3°F5.7°C 65% 3.1 mph E5.0 kmh E 5.8 mph9.3 kmh 30.58 in1035.6 mb 0.00 in0.0 mm 0.00 in0.0 mm 0.00 in0.0 mm
01:30 PM 53.6°F12.0°C 42.1°F5.6°C 65% 3.1 mph E5.0 kmh E 7.2 mph11.6 kmh 30.58 in1035.6 mb 0.00 in0.0 mm 0.00 in0.0 mm 0.00 in0.0 mm
01:25 PM 53.1°F11.7°C 41.6°F5.3°C 65% 3.6 mph ESE5.8 kmh ESE 9.0 mph14.5 kmh 30.58 in1035.6 mb 0.00 in0.0 mm 0.00 in0.0 mm 0.00 in0.0 mm
01:20 PM 53.2°F11.8°C 41.7°F5.4°C 65% 3.6 mph ESE5.8 kmh ESE 9.4 mph15.1 kmh 30.58 in1035.6 mb 0.00 in0.0 mm 0.00 in0.0 mm 0.00 in0.0 mm
01:15 PM 53.1°F11.7°C 41.6°F5.3°C 65% 3.6 mph ESE5.8 kmh ESE 9.4 mph15.1 kmh 30.58 in1035.6 mb 0.00 in0.0 mm 0.00 in0.0 mm 0.00 in0.0 mm
01:10 PM 53.1°F11.7°C 41.6°F5.3°C 65% 3.6 mph ESE5.8 kmh ESE 8.1 mph13.0 kmh 30.58 in1035.6 mb 0.00 in0.0 mm 0.00 in0.0 mm 0.00 in0.0 mm
01:05 PM 52.9°F11.6°C 41.4°F5.2°C 65% 3.6 mph E5.8 kmh E 6.7 mph10.8 kmh 30.58 in1035.6 mb 0.00 in0.0 mm 0.00 in0.0 mm 0.00 in0.0 mm
01:00 PM 52.7°F11.5°C 41.3°F5.2°C 65% 3.6 mph ESE5.8 kmh ESE 7.6 mph12.2 kmh 30.58 in1035.6 mb 0.00 in0.0 mm 0.00 in0.0 mm 0.00 in0.0 mm
12:55 PM 53.1°F11.7°C 42.0°F5.6°C 66% 3.6 mph E5.8 kmh E 7.6 mph12.2 kmh 30.58 in1035.6 mb 0.00 in0.0 mm 0.00 in0.0 mm 0.00 in0.0 mm
12:50 PM 52.5°F11.4°C 41.5°F5.3°C 66% 4.0 mph E6.4 kmh E 8.1 mph13.0 kmh 30.59 in1035.9 mb 0.00 in0.0 mm 0.00 in0.0 mm 0.00 in0.0 mm
12:45 PM 52.3°F11.3°C 41.3°F5.2°C 66% 3.6 mph E5.8 kmh E 8.1 mph13.0 kmh 30.59 in1035.9 mb 0.00 in0.0 mm 0.00 in0.0 mm 0.00 in0.0 mm
12:40 PM 52.7°F11.5°C 42.0°F5.6°C 67% 3.1 mph ENE5.0 kmh ENE 7.2 mph11.6 kmh 30.59 in1035.9 mb 0.00 in0.0 mm 0.00 in0.0 mm 0.00 in0.0 mm
12:35 PM 52.2°F11.2°C 41.6°F5.3°C 67% 2.7 mph ENE4.3 kmh ENE 5.8 mph9.3 kmh 30.59 in1035.9 mb 0.00 in0.0 mm 0.00 in0.0 mm 0.00 in0.0 mm
12:30 PM 52.2°F11.2°C 41.6°F5.3°C 67% 3.1 mph NE5.0 kmh NE 8.5 mph13.7 kmh 30.59 in1035.9 mb 0.00 in0.0 mm 0.00 in0.0 mm 0.00 in0.0 mm
12:25 PM 52.2°F11.2°C 42.0°F5.6°C 68% 4.0 mph NE6.4 kmh NE 8.5 mph13.7 kmh 30.59 in1035.9 mb 0.00 in0.0 mm 0.00 in0.0 mm 0.00 in0.0 mm
12:20 PM 51.6°F10.9°C 41.0°F5.0°C 67% 4.0 mph NE6.4 kmh NE 9.0 mph14.5 kmh 30.59 in1035.9 mb 0.00 in0.0 mm 0.00 in0.0 mm 0.00 in0.0 mm
12:15 PM 51.8°F11.0°C 41.6°F5.3°C 68% 4.0 mph NE6.4 kmh NE 13.4 mph21.6 kmh 30.59 in1035.9 mb 0.00 in0.0 mm 0.00 in0.0 mm 0.00 in0.0 mm
12:10 PM 51.4°F10.8°C 41.2°F5.1°C 68% 4.0 mph NE6.4 kmh NE 13.4 mph21.6 kmh 30.60 in1036.2 mb 0.00 in0.0 mm 0.00 in0.0 mm 0.00 in0.0 mm
12:05 PM 51.1°F10.6°C 40.9°F4.9°C 68% 3.6 mph NE5.8 kmh NE 8.1 mph13.0 kmh 30.60 in1036.2 mb 0.00 in0.0 mm 0.00 in0.0 mm 0.00 in0.0 mm
12:00 PM 51.3°F10.7°C 41.1°F5.1°C 68% 3.6 mph NE5.8 kmh NE 8.1 mph13.0 kmh 30.60 in1036.2 mb 0.00 in0.0 mm 0.00 in0.0 mm 0.00 in0.0 mm
11:55 AM 50.9°F10.5°C 40.7°F4.8°C 68% 3.1 mph NE5.0 kmh NE 7.2 mph11.6 kmh 30.60 in1036.2 mb 0.00 in0.0 mm 0.00 in0.0 mm 0.00 in0.0 mm
11:50 AM 50.5°F10.3°C 40.3°F4.6°C 68% 3.1 mph NE5.0 kmh NE 6.7 mph10.8 kmh 30.61 in1036.6 mb 0.00 in0.0 mm 0.00 in0.0 mm 0.00 in0.0 mm
11:45 AM 50.4°F10.2°C 40.2°F4.6°C 68% 3.6 mph NE5.8 kmh NE 7.6 mph12.2 kmh 30.61 in1036.6 mb 0.00 in0.0 mm 0.00 in0.0 mm 0.00 in0.0 mm
11:40 AM 49.8°F9.9°C 40.0°F4.4°C 69% 4.0 mph NE6.4 kmh NE 10.3 mph16.6 kmh 30.61 in1036.6 mb 0.00 in0.0 mm 0.00 in0.0 mm 0.00 in0.0 mm
11:35 AM 49.6°F9.8°C 39.8°F4.3°C 69% 3.6 mph NE5.8 kmh NE 10.3 mph16.6 kmh 30.61 in1036.6 mb 0.00 in0.0 mm 0.00 in0.0 mm 0.00 in0.0 mm
11:30 AM 49.8°F9.9°C 40.0°F4.4°C 69% 2.7 mph NE4.3 kmh NE 5.8 mph9.3 kmh 30.61 in1036.6 mb 0.00 in0.0 mm 0.00 in0.0 mm 0.00 in0.0 mm
11:25 AM 49.5°F9.7°C 39.7°F4.3°C 69% 2.7 mph NE4.3 kmh NE 6.3 mph10.1 kmh 30.61 in1036.6 mb 0.00 in0.0 mm 0.00 in0.0 mm 0.00 in0.0 mm
11:20 AM 48.7°F9.3°C 39.0°F3.9°C 69% 3.6 mph NE5.8 kmh NE 6.3 mph10.1 kmh 30.61 in1036.6 mb 0.00 in0.0 mm 0.00 in0.0 mm 0.00 in0.0 mm
11:15 AM 48.6°F9.2°C 38.9°F3.8°C 69% 3.1 mph NE5.0 kmh NE 6.3 mph10.1 kmh 30.62 in1036.9 mb 0.00 in0.0 mm 0.00 in0.0 mm 0.00 in0.0 mm
11:10 AM 48.2°F9.0°C 38.5°F3.6°C 69% 2.7 mph NE4.3 kmh NE 5.8 mph9.3 kmh 30.62 in1036.9 mb 0.00 in0.0 mm 0.00 in0.0 mm 0.00 in0.0 mm
11:05 AM 47.3°F8.5°C 37.6°F3.1°C 69% 2.7 mph NE4.3 kmh NE 6.3 mph10.1 kmh 30.62 in1036.9 mb 0.00 in0.0 mm 0.00 in0.0 mm 0.00 in0.0 mm
11:00 AM 47.1°F8.4°C 37.4°F3.0°C 69% 3.1 mph NE5.0 kmh NE 6.3 mph10.1 kmh 30.62 in1036.9 mb 0.00 in0.0 mm 0.00 in0.0 mm 0.00 in0.0 mm
10:55 AM 46.9°F8.3°C 37.3°F2.9°C 69% 3.1 mph NE5.0 kmh NE 5.4 mph8.7 kmh 30.62 in1036.9 mb 0.00 in0.0 mm 0.00 in0.0 mm 0.00 in0.0 mm
10:50 AM 46.4°F8.0°C 36.8°F2.7°C 69% 4.0 mph NE6.4 kmh NE 11.6 mph18.7 kmh 30.63 in1037.3 mb 0.00 in0.0 mm 0.00 in0.0 mm 0.00 in0.0 mm
10:45 AM 45.7°F7.6°C 36.1°F2.3°C 69% 4.5 mph NE7.2 kmh NE 11.6 mph18.7 kmh 30.63 in1037.3 mb 0.00 in0.0 mm 0.00 in0.0 mm 0.00 in0.0 mm
10:40 AM 45.7°F7.6°C 35.7°F2.1°C 68% 4.0 mph NE6.4 kmh NE 7.2 mph11.6 kmh 30.63 in1037.3 mb 0.00 in0.0 mm 0.00 in0.0 mm 0.00 in0.0 mm
10:35 AM 45.1°F7.3°C 35.2°F1.8°C 68% 3.6 mph NE5.8 kmh NE 6.7 mph10.8 kmh 30.63 in1037.3 mb 0.00 in0.0 mm 0.00 in0.0 mm 0.00 in0.0 mm
10:30 AM 45.1°F7.3°C 35.2°F1.8°C 68% 4.0 mph NE6.4 kmh NE 9.9 mph15.9 kmh 30.63 in1037.3 mb 0.00 in0.0 mm 0.00 in0.0 mm 0.00 in0.0 mm
10:25 AM 44.8°F7.1°C 34.9°F1.6°C 68% 4.5 mph NE7.2 kmh NE 9.9 mph15.9 kmh 30.63 in1037.3 mb 0.00 in0.0 mm 0.00 in0.0 mm 0.00 in0.0 mm
10:20 AM 44.6°F7.0°C 34.7°F1.5°C 68% 4.0 mph NE6.4 kmh NE 7.2 mph11.6 kmh 30.63 in1037.3 mb 0.00 in0.0 mm 0.00 in0.0 mm 0.00 in0.0 mm
10:15 AM 44.4°F6.9°C 34.5°F1.4°C 68% 4.0 mph NE6.4 kmh NE 7.2 mph11.6 kmh 30.63 in1037.3 mb 0.00 in0.0 mm 0.00 in0.0 mm 0.00 in0.0 mm
10:10 AM 44.1°F6.7°C 33.8°F1.0°C 67% 3.6 mph NE5.8 kmh NE 6.7 mph10.8 kmh 30.63 in1037.3 mb 0.00 in0.0 mm 0.00 in0.0 mm 0.00 in0.0 mm
10:05 AM 43.9°F6.6°C 33.6°F0.9°C 67% 3.1 mph NE5.0 kmh NE 5.8 mph9.3 kmh 30.63 in1037.3 mb 0.00 in0.0 mm 0.00 in0.0 mm 0.00 in0.0 mm
10:00 AM 43.5°F6.4°C 32.9°F0.5°C 66% 3.6 mph NE5.8 kmh NE 5.8 mph9.3 kmh 30.63 in1037.3 mb 0.00 in0.0 mm 0.00 in0.0 mm 0.00 in0.0 mm
09:55 AM 43.0°F6.1°C 32.4°F0.2°C 66% 3.1 mph NE5.0 kmh NE 5.8 mph9.3 kmh 30.63 in1037.3 mb 0.00 in0.0 mm 0.00 in0.0 mm 0.00 in0.0 mm
09:50 AM 42.4°F5.8°C 31.8°F-0.1°C 66% 2.7 mph NE4.3 kmh NE 5.8 mph9.3 kmh 30.63 in1037.3 mb 0.00 in0.0 mm 0.00 in0.0 mm 0.00 in0.0 mm
09:45 AM 42.3°F5.7°C 31.4°F-0.3°C 65% 2.7 mph NE4.3 kmh NE 4.9 mph7.9 kmh 30.63 in1037.3 mb 0.00 in0.0 mm 0.00 in0.0 mm 0.00 in0.0 mm
09:40 AM 41.9°F5.5°C 31.0°F-0.6°C 65% 2.7 mph NE4.3 kmh NE 4.5 mph7.2 kmh 30.63 in1037.3 mb 0.00 in0.0 mm 0.00 in0.0 mm 0.00 in0.0 mm
09:35 AM 41.5°F5.3°C 30.6°F-0.8°C 65% 2.2 mph NE3.5 kmh NE 4.5 mph7.2 kmh 30.63 in1037.3 mb 0.00 in0.0 mm 0.00 in0.0 mm 0.00 in0.0 mm
09:30 AM 40.6°F4.8°C 29.7°F-1.3°C 65% 2.2 mph NE3.5 kmh NE 4.5 mph7.2 kmh 30.62 in1036.9 mb 0.00 in0.0 mm 0.00 in0.0 mm 0.00 in0.0 mm
09:25 AM 40.1°F4.5°C 29.3°F-1.5°C 65% 2.7 mph NE4.3 kmh NE 4.9 mph7.9 kmh 30.62 in1036.9 mb 0.00 in0.0 mm 0.00 in0.0 mm 0.00 in0.0 mm
09:20 AM 39.4°F4.1°C 29.0°F-1.7°C 66% 3.1 mph NE5.0 kmh NE 4.9 mph7.9 kmh 30.62 in1036.9 mb 0.00 in0.0 mm 0.00 in0.0 mm 0.00 in0.0 mm
09:15 AM 39.2°F4.0°C 28.8°F-1.8°C 66% 2.7 mph NE4.3 kmh NE 4.5 mph7.2 kmh 30.62 in1036.9 mb 0.00 in0.0 mm 0.00 in0.0 mm 0.00 in0.0 mm
09:10 AM 38.8°F3.8°C 28.4°F-2.0°C 66% 2.2 mph NE3.5 kmh NE 4.5 mph7.2 kmh 30.62 in1036.9 mb 0.00 in0.0 mm 0.00 in0.0 mm 0.00 in0.0 mm
09:05 AM 38.5°F3.6°C 28.1°F-2.2°C 66% 1.8 mph NE2.9 kmh NE 4.5 mph7.2 kmh 30.62 in1036.9 mb 0.00 in0.0 mm 0.00 in0.0 mm 0.00 in0.0 mm
09:00 AM 37.9°F3.3°C 27.5°F-2.5°C 66% 1.3 mph ENE2.1 kmh ENE 3.1 mph5.0 kmh 30.61 in1036.6 mb 0.00 in0.0 mm 0.00 in0.0 mm 0.00 in0.0 mm
08:55 AM 37.8°F3.2°C 27.8°F-2.3°C 67% 1.8 mph ENE2.9 kmh ENE 3.1 mph5.0 kmh 30.61 in1036.6 mb 0.00 in0.0 mm 0.00 in0.0 mm 0.00 in0.0 mm
08:50 AM 37.6°F3.1°C 27.6°F-2.4°C 67% 1.3 mph ENE2.1 kmh ENE 3.1 mph5.0 kmh 30.61 in1036.6 mb 0.00 in0.0 mm 0.00 in0.0 mm 0.00 in0.0 mm
08:45 AM 37.2°F2.9°C 27.2°F-2.7°C 67% 1.3 mph ENE2.1 kmh ENE 3.6 mph5.8 kmh 30.61 in1036.6 mb 0.00 in0.0 mm 0.00 in0.0 mm 0.00 in0.0 mm
08:40 AM 37.0°F2.8°C 27.1°F-2.7°C 67% 0.9 mph ENE1.4 kmh ENE 3.6 mph5.8 kmh 30.61 in1036.6 mb 0.00 in0.0 mm 0.00 in0.0 mm 0.00 in0.0 mm
08:35 AM 36.7°F2.6°C 26.8°F-2.9°C 67% 0.9 mph NE1.4 kmh NE 1.3 mph2.1 kmh 30.61 in1036.6 mb 0.00 in0.0 mm 0.00 in0.0 mm 0.00 in0.0 mm
08:30 AM 36.1°F2.3°C 26.2°F-3.2°C 67% 0.9 mph N1.4 kmh N 1.8 mph2.9 kmh 30.60 in1036.2 mb 0.00 in0.0 mm 0.00 in0.0 mm 0.00 in0.0 mm
08:25 AM 36.0°F2.2°C 26.1°F-3.3°C 67% 0.9 mph NE1.4 kmh NE 1.8 mph2.9 kmh 30.60 in1036.2 mb 0.00 in0.0 mm 0.00 in0.0 mm 0.00 in0.0 mm
08:20 AM 35.4°F1.9°C 25.5°F-3.6°C 67% 0.4 mph ENE0.6 kmh ENE 0.9 mph1.4 kmh 30.61 in1036.6 mb 0.00 in0.0 mm 0.00 in0.0 mm 0.00 in0.0 mm
08:15 AM 35.1°F1.7°C 25.2°F-3.8°C 67% 0.9 mph NE1.4 kmh NE 1.8 mph2.9 kmh 30.60 in1036.2 mb 0.00 in0.0 mm 0.00 in0.0 mm 0.00 in0.0 mm
08:10 AM 34.9°F1.6°C 25.0°F-3.9°C 67% 0.9 mph NE1.4 kmh NE 2.7 mph4.3 kmh 30.60 in1036.2 mb 0.00 in0.0 mm 0.00 in0.0 mm 0.00 in0.0 mm
08:05 AM 34.9°F1.6°C 25.0°F-3.9°C 67% 1.3 mph ENE2.1 kmh ENE 3.1 mph5.0 kmh 30.60 in1036.2 mb 0.00 in0.0 mm 0.00 in0.0 mm 0.00 in0.0 mm
08:00 AM 34.0°F1.1°C 24.2°F-4.3°C 67% 0.9 mph NNW1.4 kmh NNW 3.1 mph5.0 kmh 30.60 in1036.2 mb 0.00 in0.0 mm 0.00 in0.0 mm 0.00 in0.0 mm
07:55 AM 33.8°F1.0°C 24.0°F-4.4°C 67% 0.9 mph NNW1.4 kmh NNW 2.2 mph3.5 kmh 30.60 in1036.2 mb 0.00 in0.0 mm 0.00 in0.0 mm 0.00 in0.0 mm
07:50 AM 34.0°F1.1°C 24.2°F-4.3°C 67% 0.4 mph N0.6 kmh N 1.3 mph2.1 kmh 30.60 in1036.2 mb 0.00 in0.0 mm 0.00 in0.0 mm 0.00 in0.0 mm
07:45 AM 34.3°F1.3°C 24.5°F-4.2°C 67% 0.9 mph NNE1.4 kmh NNE 1.8 mph2.9 kmh 30.60 in1036.2 mb 0.00 in0.0 mm 0.00 in0.0 mm 0.00 in0.0 mm
07:40 AM 34.9°F1.6°C 25.0°F-3.9°C 67% 0.9 mph NNE1.4 kmh NNE 1.8 mph2.9 kmh 30.60 in1036.2 mb 0.00 in0.0 mm 0.00 in0.0 mm 0.00 in0.0 mm
07:35 AM 35.6°F2.0°C 25.7°F-3.5°C 67% 1.3 mph NNE2.1 kmh NNE 2.2 mph3.5 kmh 30.60 in1036.2 mb 0.00 in0.0 mm 0.00 in0.0 mm 0.00 in0.0 mm
07:30 AM 36.1°F2.3°C 26.2°F-3.2°C 67% 1.8 mph NNE2.9 kmh NNE 2.7 mph4.3 kmh 30.59 in1035.9 mb 0.00 in0.0 mm 0.00 in0.0 mm 0.00 in0.0 mm
07:25 AM 36.5°F2.5°C 26.6°F-3.0°C 67% 1.8 mph NNE2.9 kmh NNE 4.0 mph6.4 kmh 30.59 in1035.9 mb 0.00 in0.0 mm 0.00 in0.0 mm 0.00 in0.0 mm
07:20 AM 37.0°F2.8°C 27.1°F-2.7°C 67% 2.2 mph NE3.5 kmh NE 4.0 mph6.4 kmh 30.59 in1035.9 mb 0.00 in0.0 mm 0.00 in0.0 mm 0.00 in0.0 mm
07:15 AM 37.4°F3.0°C 27.4°F-2.6°C 67% 2.2 mph NE3.5 kmh NE 4.0 mph6.4 kmh 30.59 in1035.9 mb 0.00 in0.0 mm 0.00 in0.0 mm 0.00 in0.0 mm
07:10 AM 37.4°F3.0°C 27.4°F-2.6°C 67% 1.8 mph NE2.9 kmh NE 4.0 mph6.4 kmh 30.59 in1035.9 mb 0.00 in0.0 mm 0.00 in0.0 mm 0.00 in0.0 mm
07:05 AM 37.4°F3.0°C 27.4°F-2.6°C 67% 1.3 mph NE2.1 kmh NE 4.0 mph6.4 kmh 30.59 in1035.9 mb 0.00 in0.0 mm 0.00 in0.0 mm 0.00 in0.0 mm
07:00 AM 37.2°F2.9°C 27.2°F-2.7°C 67% 1.3 mph NE2.1 kmh NE 2.7 mph4.3 kmh 30.59 in1035.9 mb 0.00 in0.0 mm 0.00 in0.0 mm 0.00 in0.0 mm
06:55 AM 37.2°F2.9°C 27.2°F-2.7°C 67% 1.3 mph NE2.1 kmh NE 2.7 mph4.3 kmh 30.59 in1035.9 mb 0.00 in0.0 mm 0.00 in0.0 mm 0.00 in0.0 mm
06:50 AM 37.2°F2.9°C 27.2°F-2.7°C 67% 1.3 mph NE2.1 kmh NE 2.7 mph4.3 kmh 30.59 in1035.9 mb 0.00 in0.0 mm 0.00 in0.0 mm 0.00 in0.0 mm
06:45 AM 37.2°F2.9°C 27.2°F-2.7°C 67% 0.9 mph NE1.4 kmh NE 2.2 mph3.5 kmh 30.58 in1035.6 mb 0.00 in0.0 mm 0.00 in0.0 mm 0.00 in0.0 mm
06:40 AM 37.2°F2.9°C 27.2°F-2.7°C 67% 1.3 mph NE2.1 kmh NE 2.7 mph4.3 kmh 30.58 in1035.6 mb 0.00 in0.0 mm 0.00 in0.0 mm 0.00 in0.0 mm
06:35 AM 37.0°F2.8°C 27.1°F-2.7°C 67% 1.8 mph NE2.9 kmh NE 4.0 mph6.4 kmh 30.58 in1035.6 mb 0.00 in0.0 mm 0.00 in0.0 mm 0.00 in0.0 mm
06:30 AM 37.0°F2.8°C 27.1°F-2.7°C 67% 1.8 mph NE2.9 kmh NE 4.0 mph6.4 kmh 30.58 in1035.6 mb 0.00 in0.0 mm 0.00 in0.0 mm 0.00 in0.0 mm
06:25 AM 37.0°F2.8°C 27.1°F-2.7°C 67% 1.3 mph NE2.1 kmh NE 3.6 mph5.8 kmh 30.58 in1035.6 mb 0.00 in0.0 mm 0.00 in0.0 mm 0.00 in0.0 mm
06:20 AM 36.9°F2.7°C 27.0°F-2.8°C 67% 1.3 mph NE2.1 kmh NE 3.6 mph5.8 kmh 30.57 in1035.2 mb 0.00 in0.0 mm 0.00 in0.0 mm 0.00 in0.0 mm
06:15 AM 36.5°F2.5°C 26.6°F-3.0°C 67% 0.9 mph NE1.4 kmh NE 2.2 mph3.5 kmh 30.58 in1035.6 mb 0.00 in0.0 mm 0.00 in0.0 mm 0.00 in0.0 mm
06:10 AM 36.5°F2.5°C 26.9°F-2.8°C 68% 0.9 mph ENE1.4 kmh ENE 2.2 mph3.5 kmh 30.57 in1035.2 mb 0.00 in0.0 mm 0.00 in0.0 mm 0.00 in0.0 mm
06:05 AM 36.5°F2.5°C 26.9°F-2.8°C 68% 0.9 mph ENE1.4 kmh ENE 1.8 mph2.9 kmh 30.58 in1035.6 mb 0.00 in0.0 mm 0.00 in0.0 mm 0.00 in0.0 mm
06:00 AM 36.3°F2.4°C 26.7°F-2.9°C 68% 0.9 mph ENE1.4 kmh ENE 2.2 mph3.5 kmh 30.58 in1035.6 mb 0.00 in0.0 mm 0.00 in0.0 mm 0.00 in0.0 mm
05:55 AM 36.0°F2.2°C 26.5°F-3.1°C 68% 1.3 mph NE2.1 kmh NE 3.6 mph5.8 kmh 30.57 in1035.2 mb 0.00 in0.0 mm 0.00 in0.0 mm 0.00 in0.0 mm
05:50 AM 36.0°F2.2°C 26.5°F-3.1°C 68% 2.2 mph NE3.5 kmh NE 4.0 mph6.4 kmh 30.57 in1035.2 mb 0.00 in0.0 mm 0.00 in0.0 mm 0.00 in0.0 mm
05:45 AM 35.6°F2.0°C 26.1°F-3.3°C 68% 2.2 mph NE3.5 kmh NE 4.0 mph6.4 kmh 30.57 in1035.2 mb 0.00 in0.0 mm 0.00 in0.0 mm 0.00 in0.0 mm
05:40 AM 35.6°F2.0°C 26.1°F-3.3°C 68% 2.2 mph NE3.5 kmh NE 3.6 mph5.8 kmh 30.57 in1035.2 mb 0.00 in0.0 mm 0.00 in0.0 mm 0.00 in0.0 mm
05:35 AM 35.4°F1.9°C 25.9°F-3.4°C 68% 1.8 mph NE2.9 kmh NE 4.0 mph6.4 kmh 30.57 in1035.2 mb 0.00 in0.0 mm 0.00 in0.0 mm 0.00 in0.0 mm
05:30 AM 35.1°F1.7°C 25.6°F-3.6°C 68% 2.2 mph NE3.5 kmh NE 6.3 mph10.1 kmh 30.57 in1035.2 mb 0.00 in0.0 mm 0.00 in0.0 mm 0.00 in0.0 mm
05:25 AM 35.1°F1.7°C 25.6°F-3.6°C 68% 2.2 mph NE3.5 kmh NE 6.3 mph10.1 kmh 30.57 in1035.2 mb 0.00 in0.0 mm 0.00 in0.0 mm 0.00 in0.0 mm
05:20 AM 34.7°F1.5°C 25.2°F-3.8°C 68% 2.2 mph NE3.5 kmh NE 4.0 mph6.4 kmh 30.57 in1035.2 mb 0.00 in0.0 mm 0.00 in0.0 mm 0.00 in0.0 mm
05:15 AM 34.3°F1.3°C 24.8°F-4.0°C 68% 1.8 mph NE2.9 kmh NE 4.0 mph6.4 kmh 30.57 in1035.2 mb 0.00 in0.0 mm 0.00 in0.0 mm 0.00 in0.0 mm
05:10 AM 32.5°F0.3°C 23.1°F-4.9°C 68% 1.3 mph ENE2.1 kmh ENE 2.7 mph4.3 kmh 30.57 in1035.2 mb 0.00 in0.0 mm 0.00 in0.0 mm 0.00 in0.0 mm
05:05 AM 32.5°F0.3°C 23.1°F-4.9°C 68% 0.4 mph ENE0.6 kmh ENE 2.2 mph3.5 kmh 30.57 in1035.2 mb 0.00 in0.0 mm 0.00 in0.0 mm 0.00 in0.0 mm
05:00 AM 31.8°F-0.1°C 22.4°F-5.3°C 68% 0.4 mph ENE0.6 kmh ENE 1.3 mph2.1 kmh 30.57 in1035.2 mb 0.00 in0.0 mm 0.00 in0.0 mm 0.00 in0.0 mm
04:55 AM 31.5°F-0.3°C 22.1°F-5.5°C 68% 0.4 mph ENE0.6 kmh ENE 1.3 mph2.1 kmh 30.57 in1035.2 mb 0.00 in0.0 mm 0.00 in0.0 mm 0.00 in0.0 mm
04:50 AM 31.6°F-0.2°C 22.2°F-5.4°C 68% 0.4 mph ENE0.6 kmh ENE 1.3 mph2.1 kmh 30.56 in1034.9 mb 0.00 in0.0 mm 0.00 in0.0 mm 0.00 in0.0 mm
04:45 AM 30.9°F-0.6°C 21.6°F-5.8°C 68% 0.4 mph ENE0.6 kmh ENE 0.9 mph1.4 kmh 30.56 in1034.9 mb 0.00 in0.0 mm 0.00 in0.0 mm 0.00 in0.0 mm
04:40 AM 31.1°F-0.5°C 21.8°F-5.7°C 68% 0.4 mph ENE0.6 kmh ENE 0.9 mph1.4 kmh 30.56 in1034.9 mb 0.00 in0.0 mm 0.00 in0.0 mm 0.00 in0.0 mm
04:35 AM 31.3°F-0.4°C 22.0°F-5.6°C 68% Calm Calm 0.9 mph1.4 kmh 30.55 in1034.5 mb 0.00 in0.0 mm 0.00 in0.0 mm 0.00 in0.0 mm
04:30 AM 31.6°F-0.2°C 22.2°F-5.4°C 68% 0.4 mph NE0.6 kmh NE 0.9 mph1.4 kmh 30.55 in1034.5 mb 0.00 in0.0 mm 0.00 in0.0 mm 0.00 in0.0 mm
04:25 AM 31.8°F-0.1°C 22.4°F-5.3°C 68% 0.4 mph NE0.6 kmh NE 1.3 mph2.1 kmh 30.55 in1034.5 mb 0.00 in0.0 mm 0.00 in0.0 mm 0.00 in0.0 mm
04:20 AM 32.2°F0.1°C 22.8°F-5.1°C 68% 0.4 mph NE0.6 kmh NE 1.3 mph2.1 kmh 30.55 in1034.5 mb 0.00 in0.0 mm 0.00 in0.0 mm 0.00 in0.0 mm
04:15 AM 32.0°F0.0°C 22.6°F-5.2°C 68% 0.9 mph NE1.4 kmh NE 1.8 mph2.9 kmh 30.55 in1034.5 mb 0.00 in0.0 mm 0.00 in0.0 mm 0.00 in0.0 mm
04:10 AM 32.5°F0.3°C 23.1°F-4.9°C 68% 1.3 mph NE2.1 kmh NE 2.7 mph4.3 kmh 30.55 in1034.5 mb 0.00 in0.0 mm 0.00 in0.0 mm 0.00 in0.0 mm
04:05 AM 32.9°F0.5°C 23.5°F-4.7°C 68% 1.3 mph NE2.1 kmh NE 3.1 mph5.0 kmh 30.55 in1034.5 mb 0.00 in0.0 mm 0.00 in0.0 mm 0.00 in0.0 mm
04:00 AM 33.3°F0.7°C 23.9°F-4.5°C 68% 1.8 mph NE2.9 kmh NE 3.1 mph5.0 kmh 30.55 in1034.5 mb 0.00 in0.0 mm 0.00 in0.0 mm 0.00 in0.0 mm
03:55 AM 33.4°F0.8°C 24.0°F-4.4°C 68% 2.2 mph NE3.5 kmh NE 3.1 mph5.0 kmh 30.55 in1034.5 mb 0.00 in0.0 mm 0.00 in0.0 mm 0.00 in0.0 mm
03:50 AM 33.4°F0.8°C 24.0°F-4.4°C 68% 1.8 mph NE2.9 kmh NE 3.6 mph5.8 kmh 30.55 in1034.5 mb 0.00 in0.0 mm 0.00 in0.0 mm 0.00 in0.0 mm
03:45 AM 33.6°F0.9°C 24.2°F-4.3°C 68% 1.8 mph NE2.9 kmh NE 3.6 mph5.8 kmh 30.55 in1034.5 mb 0.00 in0.0 mm 0.00 in0.0 mm 0.00 in0.0 mm
03:40 AM 33.4°F0.8°C 24.0°F-4.4°C 68% 2.2 mph NE3.5 kmh NE 4.0 mph6.4 kmh 30.56 in1034.9 mb 0.00 in0.0 mm 0.00 in0.0 mm 0.00 in0.0 mm
03:35 AM 33.8°F1.0°C 24.4°F-4.2°C 68% 2.2 mph NE3.5 kmh NE 4.0 mph6.4 kmh 30.56 in1034.9 mb 0.00 in0.0 mm 0.00 in0.0 mm 0.00 in0.0 mm
03:30 AM 34.0°F1.1°C 24.5°F-4.2°C 68% 2.2 mph NE3.5 kmh NE 4.5 mph7.2 kmh 30.56 in1034.9 mb 0.00 in0.0 mm 0.00 in0.0 mm 0.00 in0.0 mm
03:25 AM 34.2°F1.2°C 24.7°F-4.1°C 68% 1.8 mph NE2.9 kmh NE 4.5 mph7.2 kmh 30.56 in1034.9 mb 0.00 in0.0 mm 0.00 in0.0 mm 0.00 in0.0 mm
03:20 AM 34.0°F1.1°C 24.5°F-4.2°C 68% 1.8 mph NE2.9 kmh NE 3.1 mph5.0 kmh 30.56 in1034.9 mb 0.00 in0.0 mm 0.00 in0.0 mm 0.00 in0.0 mm
03:15 AM 33.8°F1.0°C 24.4°F-4.2°C 68% 1.8 mph NE2.9 kmh NE 3.1 mph5.0 kmh 30.56 in1034.9 mb 0.00 in0.0 mm 0.00 in0.0 mm 0.00 in0.0 mm
03:10 AM 33.8°F1.0°C 24.4°F-4.2°C 68% 0.9 mph NE1.4 kmh NE 2.7 mph4.3 kmh 30.56 in1034.9 mb 0.00 in0.0 mm 0.00 in0.0 mm 0.00 in0.0 mm
03:05 AM 33.8°F1.0°C 24.4°F-4.2°C 68% 1.3 mph NE2.1 kmh NE 3.1 mph5.0 kmh 30.56 in1034.9 mb 0.00 in0.0 mm 0.00 in0.0 mm 0.00 in0.0 mm
03:00 AM 33.6°F0.9°C 24.2°F-4.3°C 68% 1.3 mph NE2.1 kmh NE 3.1 mph5.0 kmh 30.56 in1034.9 mb 0.00 in0.0 mm 0.00 in0.0 mm 0.00 in0.0 mm
02:55 AM 33.6°F0.9°C 24.2°F-4.3°C 68% 0.9 mph ENE1.4 kmh ENE 2.7 mph4.3 kmh 30.56 in1034.9 mb 0.00 in0.0 mm 0.00 in0.0 mm 0.00 in0.0 mm
02:50 AM 33.4°F0.8°C 24.0°F-4.4°C 68% 0.9 mph ENE1.4 kmh ENE 2.2 mph3.5 kmh 30.56 in1034.9 mb 0.00 in0.0 mm 0.00 in0.0 mm 0.00 in0.0 mm
02:45 AM 33.4°F0.8°C 24.0°F-4.4°C 68% 1.3 mph NE2.1 kmh NE 3.1 mph5.0 kmh 30.56 in1034.9 mb 0.00 in0.0 mm 0.00 in0.0 mm 0.00 in0.0 mm
02:40 AM 33.8°F1.0°C 24.4°F-4.2°C 68% 1.8 mph NE2.9 kmh NE 3.6 mph5.8 kmh 30.56 in1034.9 mb 0.00 in0.0 mm 0.00 in0.0 mm 0.00 in0.0 mm
02:35 AM 33.8°F1.0°C 24.4°F-4.2°C 68% 1.8 mph NE2.9 kmh NE 4.0 mph6.4 kmh 30.56 in1034.9 mb 0.00 in0.0 mm 0.00 in0.0 mm 0.00 in0.0 mm
02:30 AM 33.8°F1.0°C 24.4°F-4.2°C 68% 1.3 mph NE2.1 kmh NE 4.0 mph6.4 kmh 30.56 in1034.9 mb 0.00 in0.0 mm 0.00 in0.0 mm 0.00 in0.0 mm
02:25 AM 33.3°F0.7°C 23.9°F-4.5°C 68% 1.3 mph NE2.1 kmh NE 2.7 mph4.3 kmh 30.56 in1034.9 mb 0.00 in0.0 mm 0.00 in0.0 mm 0.00 in0.0 mm
02:20 AM 33.3°F0.7°C 23.9°F-4.5°C 68% 1.8 mph NE2.9 kmh NE 3.6 mph5.8 kmh 30.56 in1034.9 mb 0.00 in0.0 mm 0.00 in0.0 mm 0.00 in0.0 mm
02:15 AM 33.4°F0.8°C 24.0°F-4.4°C 68% 1.8 mph NE2.9 kmh NE 3.6 mph5.8 kmh 30.56 in1034.9 mb 0.00 in0.0 mm 0.00 in0.0 mm 0.00 in0.0 mm
02:10 AM 33.3°F0.7°C 23.9°F-4.5°C 68% 1.3 mph NE2.1 kmh NE 3.6 mph5.8 kmh 30.56 in1034.9 mb 0.00 in0.0 mm 0.00 in0.0 mm 0.00 in0.0 mm
02:05 AM 33.1°F0.6°C 23.7°F-4.6°C 68% 0.9 mph NE1.4 kmh NE 2.2 mph3.5 kmh 30.56 in1034.9 mb 0.00 in0.0 mm 0.00 in0.0 mm 0.00 in0.0 mm
02:00 AM 33.1°F0.6°C 23.7°F-4.6°C 68% 0.4 mph NE0.6 kmh NE 1.8 mph2.9 kmh 30.56 in1034.9 mb 0.00 in0.0 mm 0.00 in0.0 mm 0.00 in0.0 mm
01:55 AM 32.9°F0.5°C 23.5°F-4.7°C 68% 0.4 mph NE0.6 kmh NE 1.3 mph2.1 kmh 30.55 in1034.5 mb 0.00 in0.0 mm 0.00 in0.0 mm 0.00 in0.0 mm
01:50 AM 33.3°F0.7°C 23.9°F-4.5°C 68% 0.9 mph NE1.4 kmh NE 1.8 mph2.9 kmh 30.55 in1034.5 mb 0.00 in0.0 mm 0.00 in0.0 mm 0.00 in0.0 mm
01:45 AM 33.6°F0.9°C 24.2°F-4.3°C 68% 1.3 mph NE2.1 kmh NE 2.7 mph4.3 kmh 30.55 in1034.5 mb 0.00 in0.0 mm 0.00 in0.0 mm 0.00 in0.0 mm
01:40 AM 33.4°F0.8°C 24.0°F-4.4°C 68% 1.3 mph NE2.1 kmh NE 2.7 mph4.3 kmh 30.55 in1034.5 mb 0.00 in0.0 mm 0.00 in0.0 mm 0.00 in0.0 mm
01:35 AM 33.1°F0.6°C 23.7°F-4.6°C 68% 1.3 mph NNE2.1 kmh NNE 2.7 mph4.3 kmh 30.55 in1034.5 mb 0.00 in0.0 mm 0.00 in0.0 mm 0.00 in0.0 mm
01:30 AM 33.4°F0.8°C 24.0°F-4.4°C 68% 1.3 mph NNE2.1 kmh NNE 2.7 mph4.3 kmh 30.55 in1034.5 mb 0.00 in0.0 mm 0.00 in0.0 mm 0.00 in0.0 mm
01:25 AM 33.8°F1.0°C 24.4°F-4.2°C 68% 1.3 mph NNE2.1 kmh NNE 1.8 mph2.9 kmh 30.55 in1034.5 mb 0.00 in0.0 mm 0.00 in0.0 mm 0.00 in0.0 mm
01:20 AM 33.6°F0.9°C 24.2°F-4.3°C 68% 1.3 mph NNE2.1 kmh NNE 3.6 mph5.8 kmh 30.55 in1034.5 mb 0.00 in0.0 mm 0.00 in0.0 mm 0.00 in0.0 mm
01:15 AM 33.3°F0.7°C 23.9°F-4.5°C 68% 1.3 mph NNE2.1 kmh NNE 3.6 mph5.8 kmh 30.55 in1034.5 mb 0.00 in0.0 mm 0.00 in0.0 mm 0.00 in0.0 mm
01:10 AM 33.3°F0.7°C 23.9°F-4.5°C 68% 1.3 mph NNE2.1 kmh NNE 2.2 mph3.5 kmh 30.55 in1034.5 mb 0.00 in0.0 mm 0.00 in0.0 mm 0.00 in0.0 mm
01:05 AM 33.4°F0.8°C 24.0°F-4.4°C 68% 1.3 mph NNE2.1 kmh NNE 2.2 mph3.5 kmh 30.55 in1034.5 mb 0.00 in0.0 mm 0.00 in0.0 mm 0.00 in0.0 mm
01:00 AM 33.8°F1.0°C 24.4°F-4.2°C 68% 1.3 mph NNE2.1 kmh NNE 2.7 mph4.3 kmh 30.55 in1034.5 mb 0.00 in0.0 mm 0.00 in0.0 mm 0.00 in0.0 mm
12:55 AM 34.2°F1.2°C 24.7°F-4.1°C 68% 1.3 mph N2.1 kmh N 2.7 mph4.3 kmh 30.55 in1034.5 mb 0.00 in0.0 mm 0.00 in0.0 mm 0.00 in0.0 mm
12:50 AM 33.8°F1.0°C 24.4°F-4.2°C 68% 1.3 mph N2.1 kmh N 2.7 mph4.3 kmh 30.55 in1034.5 mb 0.00 in0.0 mm 0.00 in0.0 mm 0.00 in0.0 mm
12:45 AM 33.3°F0.7°C 23.9°F-4.5°C 68% 0.9 mph N1.4 kmh N 1.8 mph2.9 kmh 30.55 in1034.5 mb 0.00 in0.0 mm 0.00 in0.0 mm 0.00 in0.0 mm
12:40 AM 32.7°F0.4°C 23.3°F-4.8°C 68% 0.4 mph N0.6 kmh N 1.3 mph2.1 kmh 30.55 in1034.5 mb 0.00 in0.0 mm 0.00 in0.0 mm 0.00 in0.0 mm
12:35 AM 32.7°F0.4°C 23.3°F-4.8°C 68% 0.4 mph N0.6 kmh N 0.9 mph1.4 kmh 30.55 in1034.5 mb 0.00 in0.0 mm 0.00 in0.0 mm 0.00 in0.0 mm
12:30 AM 32.7°F0.4°C 23.3°F-4.8°C 68% 0.4 mph N0.6 kmh N 0.9 mph1.4 kmh 30.54 in1034.2 mb 0.00 in0.0 mm 0.00 in0.0 mm 0.00 in0.0 mm
12:25 AM 32.9°F0.5°C 23.5°F-4.7°C 68% 0.9 mph N1.4 kmh N 1.3 mph2.1 kmh 30.54 in1034.2 mb 0.00 in0.0 mm 0.00 in0.0 mm 0.00 in0.0 mm
12:20 AM 32.7°F0.4°C 23.3°F-4.8°C 68% 0.9 mph N1.4 kmh N 1.3 mph2.1 kmh 30.54 in1034.2 mb 0.00 in0.0 mm 0.00 in0.0 mm 0.00 in0.0 mm
12:15 AM 32.9°F0.5°C 23.5°F-4.7°C 68% 0.4 mph N0.6 kmh N 0.9 mph1.4 kmh 30.54 in1034.2 mb 0.00 in0.0 mm 0.00 in0.0 mm 0.00 in0.0 mm
12:10 AM 33.1°F0.6°C 23.7°F-4.6°C 68% 0.4 mph N0.6 kmh N 0.9 mph1.4 kmh 30.54 in1034.2 mb 0.00 in0.0 mm 0.00 in0.0 mm 0.00 in0.0 mm
12:05 AM 33.1°F0.6°C 23.7°F-4.6°C 68% 0.4 mph N0.6 kmh N 0.9 mph1.4 kmh 30.54 in1034.2 mb 0.00 in0.0 mm 0.00 in0.0 mm 0.00 in0.0 mm
12:00 AM 33.6°F0.9°C 24.2°F-4.3°C 68% 0.4 mph N0.6 kmh N 0.9 mph1.4 kmh 30.54 in1034.2 mb 0.00 in0.0 mm 0.00 in0.0 mm 0.00 in0.0 mm